createdAt,value
2022-10-31T00:00:58.500Z,5.60
2022-10-31T00:03:37.128Z,3.97
2022-10-31T00:06:07.386Z,6.55
2022-10-31T00:08:39.348Z,5.72
2022-10-31T00:14:10.488Z,5.53
2022-10-31T00:16:55.006Z,5.90
2022-10-31T00:19:23.316Z,6.47
2022-10-31T00:21:53.004Z,9.10
2022-10-31T00:24:21.218Z,5.20
2022-10-31T00:27:10.122Z,5.93
2022-10-31T00:29:45.412Z,3.33
2022-10-31T00:32:42.628Z,3.80
2022-10-31T00:35:35.391Z,4.60
2022-10-31T00:38:05.526Z,4.45
2022-10-31T00:40:38.130Z,5.10
2022-10-31T00:43:09.242Z,4.55
2022-10-31T00:45:42.835Z,7.38
2022-10-31T00:48:10.932Z,7.00
2022-10-31T00:50:48.898Z,5.35
2022-10-31T00:53:15.987Z,3.40
2022-10-31T00:55:44.101Z,5.28
2022-10-31T00:58:12.424Z,2.55
2022-10-31T01:00:40.015Z,4.95
2022-10-31T01:03:10.638Z,2.85
2022-10-31T01:05:41.934Z,2.97
2022-10-31T01:08:09.533Z,4.95
2022-10-31T01:10:36.629Z,3.72
2022-10-31T01:13:03.743Z,3.95
2022-10-31T01:15:40.343Z,3.67
2022-10-31T01:18:08.611Z,4.13
2022-10-31T01:20:37.656Z,2.60
2022-10-31T01:23:04.783Z,2.17
2022-10-31T01:25:32.004Z,3.42
2022-10-31T01:27:59.499Z,5.20
2022-10-31T01:30:37.841Z,5.13
2022-10-31T01:33:05.015Z,2.72
2022-10-31T01:35:32.166Z,3.40
2022-10-31T01:38:04.228Z,5.22
2022-10-31T01:40:32.719Z,2.92
2022-10-31T01:43:02.602Z,4.75
2022-10-31T01:46:00.839Z,5.45
2022-10-31T01:48:34.357Z,3.10
2022-10-31T01:51:05.923Z,5.07
2022-10-31T01:53:33.412Z,3.45
2022-10-31T01:56:07.043Z,2.38
2022-10-31T01:58:54.160Z,4.50
2022-10-31T02:01:25.974Z,6.97
2022-10-31T02:03:53.327Z,2.78
2022-10-31T02:06:39.813Z,2.70
2022-10-31T02:09:07.768Z,3.90
2022-10-31T02:11:36.573Z,2.03
2022-10-31T02:14:04.557Z,1.55
2022-10-31T02:17:00.332Z,2.85
2022-10-31T02:20:24.748Z,3.22
2022-10-31T02:23:36.847Z,7.05
2022-10-31T02:26:25.827Z,6.22
2022-10-31T02:29:30.098Z,3.90
2022-10-31T02:32:09.818Z,2.58
2022-10-31T02:34:46.108Z,3.35
2022-10-31T02:37:22.625Z,4.60
2022-10-31T02:40:23.712Z,4.90
2022-10-31T02:43:18.911Z,2.67
2022-10-31T02:45:54.947Z,2.63
2022-10-31T02:48:28.978Z,4.93
2022-10-31T02:51:04.274Z,3.63
2022-10-31T02:53:35.502Z,3.58
2022-10-31T02:56:18.438Z,3.63
2022-10-31T02:59:09.310Z,3.55
2022-10-31T03:02:09.270Z,3.50
2022-10-31T03:04:50.146Z,3.97
2022-10-31T03:07:34.846Z,5.07
2022-10-31T03:10:29.468Z,4.07
2022-10-31T03:13:16.108Z,3.97
2022-10-31T03:15:52.225Z,6.07
2022-10-31T03:18:24.398Z,7.28
2022-10-31T03:21:05.442Z,4.30
2022-10-31T03:23:35.411Z,3.50
2022-10-31T03:26:06.250Z,5.53
2022-10-31T03:28:41.630Z,3.20
2022-10-31T03:31:10.910Z,6.72
2022-10-31T03:33:43.391Z,7.88
2022-10-31T03:36:13.763Z,7.70
2022-10-31T03:38:43.780Z,6.93
2022-10-31T03:41:18.800Z,5.90
2022-10-31T03:43:53.170Z,7.28
2022-10-31T03:46:21.019Z,4.53
2022-10-31T03:48:48.812Z,4.75
2022-10-31T03:51:50.755Z,5.38
2022-10-31T03:54:35.918Z,6.28
2022-10-31T03:57:42.394Z,4.20
2022-10-31T04:00:15.163Z,7.93
2022-10-31T04:03:08.442Z,5.03
2022-10-31T04:05:38.147Z,6.22
2022-10-31T04:08:10.801Z,4.22
2022-10-31T04:10:39.926Z,4.32
2022-10-31T04:13:15.283Z,7.75
2022-10-31T04:15:50.822Z,2.75
2022-10-31T04:18:18.908Z,9.40
2022-10-31T04:20:49.727Z,3.50
2022-10-31T04:23:23.912Z,7.82
2022-10-31T04:25:51.639Z,6.85
2022-10-31T04:30:52.200Z,6.63
2022-10-31T04:33:19.648Z,6.38
2022-10-31T04:35:48.565Z,6.72
2022-10-31T04:38:16.082Z,6.00
2022-10-31T04:40:45.838Z,6.50
2022-10-31T04:43:31.429Z,9.60
2022-10-31T04:46:00.835Z,5.95
2022-10-31T04:48:28.124Z,5.50
2022-10-31T04:51:00.496Z,6.30
2022-10-31T04:53:28.525Z,9.20
2022-10-31T04:56:14.156Z,4.72
2022-10-31T04:58:44.795Z,7.38
2022-10-31T05:01:13.329Z,5.47
2022-10-31T05:03:40.904Z,3.60
2022-10-31T05:06:08.395Z,7.43
2022-10-31T05:08:36.957Z,3.58
2022-10-31T05:11:06.632Z,4.80
2022-10-31T05:13:34.484Z,9.45
2022-10-31T05:16:24.323Z,6.60
2022-10-31T05:19:10.003Z,6.70
2022-10-31T05:21:55.869Z,11.50
2022-10-31T05:24:24.078Z,4.25
2022-10-31T05:26:51.305Z,5.55
2022-10-31T05:29:18.512Z,3.72
2022-10-31T05:31:45.588Z,6.90
2022-10-31T05:34:28.779Z,5.68
2022-10-31T05:37:25.315Z,3.17
2022-10-31T05:39:52.606Z,7.03
2022-10-31T05:42:19.987Z,4.35
2022-10-31T05:44:48.097Z,6.95
2022-10-31T05:47:31.852Z,4.72
2022-10-31T05:50:26.818Z,3.05
2022-10-31T05:53:06.775Z,4.22
2022-10-31T05:55:38.619Z,3.25
2022-10-31T05:58:14.767Z,6.70
2022-10-31T06:00:49.900Z,4.72
2022-10-31T06:03:17.097Z,10.30
2022-10-31T06:05:52.263Z,4.40
2022-10-31T06:08:24.042Z,6.28
2022-10-31T06:10:51.766Z,3.92
2022-10-31T06:13:25.393Z,4.28
2022-10-31T06:16:03.639Z,9.48
2022-10-31T06:18:36.397Z,4.68
2022-10-31T06:21:04.195Z,4.85
2022-10-31T06:23:31.413Z,8.27
2022-10-31T06:26:18.544Z,5.55
2022-10-31T06:28:45.736Z,6.70
2022-10-31T06:31:31.790Z,7.28
2022-10-31T06:33:59.124Z,5.75
2022-10-31T06:39:01.377Z,7.55
2022-10-31T06:41:28.575Z,4.78
2022-10-31T06:43:57.362Z,10.75
2022-10-31T06:46:44.426Z,6.40
2022-10-31T06:49:31.535Z,5.20
2022-10-31T06:52:02.786Z,4.57
2022-10-31T06:54:30.383Z,7.70
2022-10-31T06:56:57.782Z,7.05
2022-10-31T06:59:25.324Z,5.45
2022-10-31T07:02:11.922Z,4.03
2022-10-31T07:04:40.698Z,9.63
2022-10-31T07:07:08.887Z,8.43
2022-10-31T07:09:37.307Z,6.38
2022-10-31T07:12:05.598Z,5.93
2022-10-31T07:14:36.901Z,4.53
2022-10-31T07:17:04.149Z,7.30
2022-10-31T07:19:38.150Z,3.22
2022-10-31T07:22:05.272Z,5.97
2022-10-31T07:24:33.542Z,8.00
2022-10-31T07:27:19.170Z,7.10
2022-10-31T07:29:48.597Z,6.90
2022-10-31T07:32:16.974Z,5.32
2022-10-31T07:34:51.509Z,5.13
2022-10-31T07:37:22.011Z,10.30
2022-10-31T07:39:52.305Z,6.43
2022-10-31T07:42:19.414Z,8.55
2022-10-31T07:44:46.697Z,7.55
2022-10-31T07:47:44.356Z,6.35
2022-10-31T07:50:32.052Z,5.28
2022-10-31T07:53:27.977Z,8.23
2022-10-31T07:56:11.540Z,10.75
2022-10-31T07:58:38.652Z,9.45
2022-10-31T08:01:06.011Z,11.25
2022-10-31T08:03:41.265Z,7.53
2022-10-31T08:06:11.220Z,5.57
2022-10-31T08:08:43.961Z,5.35
2022-10-31T08:11:11.217Z,9.05
2022-10-31T08:13:39.476Z,6.93
2022-10-31T08:16:08.496Z,6.88
2022-10-31T08:18:44.056Z,8.15
2022-10-31T08:21:14.889Z,4.13
2022-10-31T08:23:43.167Z,8.45
2022-10-31T08:26:10.559Z,10.20
2022-10-31T08:28:38.265Z,9.52
2022-10-31T08:31:06.762Z,8.35
2022-10-31T08:33:42.507Z,10.20
2022-10-31T08:36:18.386Z,7.38
2022-10-31T08:39:07.993Z,7.85
2022-10-31T08:41:36.219Z,6.95
2022-10-31T08:44:04.049Z,7.72
2022-10-31T08:46:32.997Z,6.45
2022-10-31T08:49:00.272Z,8.05
2022-10-31T08:51:27.460Z,7.93
2022-10-31T08:53:56.592Z,9.95
2022-10-31T08:56:41.945Z,8.25
2022-10-31T08:59:22.835Z,7.10
2022-10-31T09:02:08.868Z,9.02
2022-10-31T09:04:36.582Z,6.78
2022-10-31T09:09:51.164Z,5.85
2022-10-31T09:12:20.031Z,7.15
2022-10-31T09:15:07.520Z,12.65
2022-10-31T09:17:47.945Z,9.05
2022-10-31T09:20:37.301Z,5.00
2022-10-31T09:23:07.650Z,12.75
2022-10-31T09:25:38.277Z,9.00
2022-10-31T09:28:25.707Z,6.22
2022-10-31T09:30:55.365Z,6.57
2022-10-31T09:33:43.244Z,10.07
2022-10-31T09:36:30.790Z,12.95
2022-10-31T09:38:58.027Z,9.45
2022-10-31T09:41:56.082Z,8.80
2022-10-31T09:44:49.224Z,5.97
2022-10-31T09:47:53.749Z,8.05
2022-10-31T09:50:53.040Z,7.60
2022-10-31T09:54:01.187Z,8.35
2022-10-31T09:56:29.761Z,6.88
2022-10-31T09:59:02.350Z,7.70
2022-10-31T10:01:56.221Z,9.20
2022-10-31T10:04:32.763Z,13.48
2022-10-31T10:09:47.697Z,7.35
2022-10-31T10:15:36.902Z,12.93
2022-10-31T10:18:23.065Z,10.25
2022-10-31T10:21:17.806Z,7.53
2022-10-31T10:23:57.083Z,12.48
2022-10-31T10:26:43.806Z,8.27
2022-10-31T10:29:41.930Z,11.15
2022-10-31T10:32:20.014Z,10.18
2022-10-31T10:34:52.861Z,6.35
2022-10-31T10:37:29.541Z,9.77
2022-10-31T10:40:26.053Z,3.15
2022-10-31T10:43:21.436Z,7.32
2022-10-31T10:46:37.553Z,5.05
2022-10-31T10:49:10.598Z,9.60
2022-10-31T10:52:07.604Z,13.57
2022-10-31T10:54:42.421Z,12.20
2022-10-31T10:57:41.878Z,5.97
2022-10-31T11:00:23.848Z,6.03
2022-10-31T11:02:51.787Z,7.43
2022-10-31T11:05:27.231Z,5.93
2022-10-31T11:07:57.325Z,4.45
2022-10-31T11:10:28.040Z,9.38
2022-10-31T11:13:03.462Z,3.47
2022-10-31T11:15:37.160Z,8.30
2022-10-31T11:18:05.293Z,3.45
2022-10-31T11:20:37.302Z,3.63
2022-10-31T11:23:21.619Z,5.07
2022-10-31T11:25:57.179Z,3.58
2022-10-31T11:28:25.004Z,8.27
2022-10-31T11:30:58.949Z,6.90
2022-10-31T11:33:33.849Z,4.75
2022-10-31T11:36:03.802Z,5.95
2022-10-31T11:38:51.923Z,4.00
2022-10-31T11:41:30.973Z,5.65
2022-10-31T11:44:02.185Z,4.40
2022-10-31T11:46:32.341Z,5.72
2022-10-31T11:49:02.684Z,2.25
2022-10-31T11:51:35.930Z,4.78
2022-10-31T11:54:05.314Z,5.50
2022-10-31T11:56:43.428Z,2.58
2022-10-31T11:59:40.315Z,6.10
2022-10-31T12:02:20.319Z,5.00
2022-10-31T12:05:02.180Z,2.70
2022-10-31T12:07:29.475Z,3.17
2022-10-31T12:09:56.767Z,3.55
2022-10-31T12:12:26.887Z,3.88
2022-10-31T12:15:12.660Z,4.30
2022-10-31T12:17:54.237Z,6.28
2022-10-31T12:20:33.576Z,2.05
2022-10-31T12:23:15.996Z,3.53
2022-10-31T12:25:56.290Z,7.13
2022-10-31T12:28:55.192Z,2.88
2022-10-31T12:31:50.720Z,3.58
2022-10-31T12:34:41.004Z,4.10
2022-10-31T12:37:32.737Z,3.08
2022-10-31T12:40:18.358Z,2.85
2022-10-31T12:43:05.666Z,4.13
2022-10-31T12:46:00.777Z,4.10
2022-10-31T12:48:31.036Z,3.90
2022-10-31T12:51:17.176Z,3.58
2022-10-31T12:54:18.107Z,4.20
2022-10-31T12:57:15.824Z,5.45
2022-10-31T13:00:12.591Z,1.13
2022-10-31T13:02:55.499Z,1.58
2022-10-31T13:05:34.513Z,1.48
2022-10-31T13:08:09.938Z,4.97
2022-10-31T13:10:44.463Z,4.78
2022-10-31T13:13:20.776Z,2.58
2022-10-31T13:16:04.959Z,2.38
2022-10-31T13:18:43.768Z,4.82
2022-10-31T13:21:19.173Z,3.40
2022-10-31T13:23:51.603Z,6.13
2022-10-31T13:26:44.119Z,4.65
2022-10-31T13:29:51.602Z,3.95
2022-10-31T13:32:20.325Z,3.40
2022-10-31T13:34:53.268Z,2.00
2022-10-31T13:37:35.869Z,2.95
2022-10-31T13:40:20.696Z,8.55
2022-10-31T13:42:54.097Z,3.40
2022-10-31T13:45:25.004Z,3.92
2022-10-31T13:48:18.700Z,2.45
2022-10-31T13:51:08.605Z,2.90
2022-10-31T13:53:56.690Z,3.38
2022-10-31T13:56:33.263Z,5.55
2022-10-31T13:59:14.167Z,3.50
2022-10-31T14:02:01.853Z,5.43
2022-10-31T14:04:45.387Z,2.58
2022-10-31T14:07:18.985Z,4.80
2022-10-31T14:09:48.872Z,2.95
2022-10-31T14:12:38.047Z,1.73
2022-10-31T14:15:27.074Z,1.50
2022-10-31T14:18:01.416Z,5.72
2022-10-31T14:20:43.626Z,5.03
2022-10-31T14:23:30.040Z,4.20
2022-10-31T14:26:15.861Z,4.00
2022-10-31T14:28:43.027Z,1.80
2022-10-31T14:31:51.160Z,4.45
2022-10-31T14:35:00.454Z,4.70
2022-10-31T14:38:08.942Z,5.50
2022-10-31T14:40:43.464Z,2.80
2022-10-31T14:43:33.907Z,2.13
2022-10-31T14:46:33.015Z,5.20
2022-10-31T14:49:37.394Z,3.47
2022-10-31T14:52:09.515Z,2.55
2022-10-31T14:54:52.485Z,3.40
2022-10-31T14:57:28.042Z,4.43
2022-10-31T15:00:28.941Z,3.65
2022-10-31T15:03:19.481Z,3.30
2022-10-31T15:05:56.045Z,2.45
2022-10-31T15:08:33.441Z,4.45
2022-10-31T15:11:04.536Z,4.13
2022-10-31T15:13:31.777Z,2.88
2022-10-31T15:15:59.180Z,4.90
2022-10-31T15:18:29.050Z,4.68
2022-10-31T15:20:57.505Z,6.60
2022-10-31T15:23:30.597Z,2.92
2022-10-31T15:26:03.997Z,4.47
2022-10-31T15:28:32.416Z,3.28
2022-10-31T15:31:02.696Z,2.95
2022-10-31T15:33:46.892Z,7.20
2022-10-31T15:36:23.937Z,4.80
2022-10-31T15:38:58.394Z,5.80
2022-10-31T15:41:29.070Z,2.60
2022-10-31T15:44:00.603Z,6.88
2022-10-31T15:46:28.287Z,5.10
2022-10-31T15:48:55.829Z,5.13
2022-10-31T15:51:35.449Z,3.17
2022-10-31T15:54:02.776Z,3.92
2022-10-31T15:56:32.777Z,5.90
2022-10-31T15:59:02.147Z,3.95
2022-10-31T16:01:32.336Z,4.85
2022-10-31T16:04:12.863Z,5.45
2022-10-31T16:06:40.439Z,3.67
2022-10-31T16:09:24.022Z,5.43
2022-10-31T16:11:52.212Z,3.67
2022-10-31T16:14:26.007Z,4.22
2022-10-31T16:16:57.025Z,4.22
2022-10-31T16:19:33.925Z,6.93
2022-10-31T16:22:14.161Z,7.10
2022-10-31T16:24:59.522Z,7.53
2022-10-31T16:27:29.988Z,6.57
2022-10-31T16:30:02.503Z,4.05
2022-10-31T16:32:52.588Z,4.00
2022-10-31T16:35:26.777Z,2.92
2022-10-31T16:37:54.942Z,4.25
2022-10-31T16:40:22.254Z,5.45
2022-10-31T16:42:50.113Z,4.47
2022-10-31T16:45:23.897Z,5.32
2022-10-31T16:47:51.447Z,5.22
2022-10-31T16:50:24.437Z,6.57
2022-10-31T16:53:12.844Z,9.38
2022-10-31T16:55:47.410Z,4.88
2022-10-31T16:58:26.103Z,9.57
2022-10-31T17:00:54.014Z,5.60
2022-10-31T17:03:21.522Z,7.10
2022-10-31T17:05:49.235Z,3.70
2022-10-31T17:08:16.685Z,8.55
2022-10-31T17:10:45.592Z,5.45
2022-10-31T17:13:21.132Z,5.82
2022-10-31T17:15:51.956Z,4.60
2022-10-31T17:18:22.918Z,4.50
2022-10-31T17:21:02.279Z,5.57
2022-10-31T17:23:29.807Z,4.78
2022-10-31T17:25:57.266Z,6.72
2022-10-31T17:28:26.588Z,7.70
2022-10-31T17:30:55.845Z,6.18
2022-10-31T17:33:23.006Z,7.97
2022-10-31T17:35:50.167Z,6.03
2022-10-31T17:38:17.254Z,7.13
2022-10-31T17:40:44.599Z,10.75
2022-10-31T17:43:12.540Z,7.72
2022-10-31T17:45:41.377Z,10.55
2022-10-31T17:48:12.159Z,8.30
2022-10-31T17:50:39.749Z,9.73
2022-10-31T17:53:06.942Z,7.78
2022-10-31T17:55:37.257Z,9.32
2022-10-31T17:58:05.643Z,10.15
2022-10-31T18:00:33.483Z,13.70
2022-10-31T18:03:03.896Z,14.15
2022-10-31T18:05:31.372Z,13.32
2022-10-31T18:08:02.541Z,11.90
2022-10-31T18:10:31.412Z,11.38
2022-10-31T18:12:58.770Z,11.57
2022-10-31T18:15:26.230Z,9.10
2022-10-31T18:17:53.435Z,10.68
2022-10-31T18:20:20.612Z,9.52
2022-10-31T18:22:47.837Z,13.85
2022-10-31T18:25:15.067Z,12.88
2022-10-31T18:27:42.252Z,12.88
2022-10-31T18:30:10.476Z,14.02
2022-10-31T18:32:38.981Z,13.05
2022-10-31T18:35:06.501Z,11.63
2022-10-31T18:37:33.625Z,11.07
2022-10-31T18:40:03.785Z,15.88
2022-10-31T18:42:30.963Z,13.90
2022-10-31T18:45:00.281Z,16.88
2022-10-31T18:47:33.895Z,13.50
2022-10-31T18:50:01.064Z,17.00
2022-10-31T18:52:28.557Z,17.45
2022-10-31T18:54:55.703Z,15.60
2022-10-31T18:57:22.834Z,21.45
2022-10-31T18:59:50.095Z,17.65
2022-10-31T19:02:18.055Z,16.98
2022-10-31T19:04:45.393Z,14.35
2022-10-31T19:07:12.601Z,15.43
2022-10-31T19:09:39.820Z,15.43
2022-10-31T19:12:07.155Z,15.07
2022-10-31T19:14:34.374Z,16.60
2022-10-31T19:17:02.446Z,10.55
2022-10-31T19:19:29.829Z,13.50
2022-10-31T19:21:56.988Z,13.82
2022-10-31T19:24:24.523Z,10.55
2022-10-31T19:26:51.792Z,16.25
2022-10-31T19:29:19.051Z,13.25
2022-10-31T19:31:46.505Z,15.55
2022-10-31T19:34:13.810Z,13.48
2022-10-31T19:36:41.114Z,18.55
2022-10-31T19:39:09.661Z,11.13
2022-10-31T19:41:36.855Z,13.40
2022-10-31T19:44:04.111Z,11.85
2022-10-31T19:46:52.985Z,17.40
2022-10-31T19:49:21.356Z,13.43
2022-10-31T19:51:48.591Z,12.63
2022-10-31T19:54:15.912Z,13.23
2022-10-31T19:56:43.212Z,15.75
2022-10-31T19:59:10.423Z,13.63
2022-10-31T20:01:37.917Z,13.98
2022-10-31T20:04:05.192Z,13.82
2022-10-31T20:06:35.888Z,11.80
2022-10-31T20:09:06.179Z,12.77
2022-10-31T20:11:33.610Z,15.35
2022-10-31T20:14:00.925Z,11.80
2022-10-31T20:16:29.020Z,18.35
2022-10-31T20:18:57.022Z,19.23
2022-10-31T20:21:26.580Z,17.40
2022-10-31T20:24:02.285Z,14.68
2022-10-31T20:26:31.551Z,15.90
2022-10-31T20:29:00.257Z,9.77
2022-10-31T20:31:30.192Z,10.98
2022-10-31T20:33:57.613Z,12.95
2022-10-31T20:36:25.429Z,9.93
2022-10-31T20:38:53.443Z,11.25
2022-10-31T20:41:21.183Z,8.80
2022-10-31T20:43:49.121Z,11.50
2022-10-31T20:46:24.755Z,7.22
2022-10-31T20:48:53.643Z,9.65
2022-10-31T20:51:24.882Z,6.03
2022-10-31T20:53:53.924Z,9.90
2022-10-31T20:56:23.384Z,8.05
2022-10-31T20:58:52.178Z,7.28
2022-10-31T21:01:25.375Z,7.28
2022-10-31T21:03:53.314Z,8.38
2022-10-31T21:06:23.289Z,8.73
2022-10-31T21:08:51.741Z,9.23
2022-10-31T21:11:21.633Z,9.20
2022-10-31T21:13:49.925Z,11.80
2022-10-31T21:16:22.863Z,9.73
2022-10-31T21:18:51.182Z,6.38
2022-10-31T21:21:22.014Z,5.55
2022-10-31T21:26:27.686Z,5.22
2022-10-31T21:28:56.973Z,7.32
2022-10-31T21:31:25.525Z,7.75
2022-10-31T21:33:52.770Z,10.25
2022-10-31T21:36:20.446Z,8.98
2022-10-31T21:38:57.954Z,8.57
2022-10-31T21:41:28.951Z,13.35
2022-10-31T21:43:56.340Z,10.73
2022-10-31T21:46:27.601Z,7.20
2022-10-31T21:48:55.506Z,7.25
2022-10-31T21:51:36.099Z,10.00
2022-10-31T21:54:22.110Z,12.23
2022-10-31T21:56:51.263Z,8.68
2022-10-31T21:59:18.657Z,9.77
2022-10-31T22:01:45.971Z,5.65
2022-10-31T22:04:13.604Z,10.55
2022-10-31T22:06:47.450Z,12.55
2022-10-31T22:09:15.566Z,8.48
2022-10-31T22:11:43.422Z,10.20
2022-10-31T22:14:15.414Z,8.25
2022-10-31T22:16:43.130Z,7.78
2022-10-31T22:19:12.321Z,5.85
2022-10-31T22:21:44.659Z,7.85
2022-10-31T22:24:12.000Z,9.02
2022-10-31T22:26:40.243Z,6.63
2022-10-31T22:29:28.630Z,4.80
2022-10-31T22:31:59.603Z,6.85
2022-10-31T22:34:28.695Z,7.93
2022-10-31T22:36:57.129Z,8.20
2022-10-31T22:39:24.945Z,10.50
2022-10-31T22:41:52.235Z,9.50
2022-10-31T22:44:21.205Z,12.48
2022-10-31T22:46:49.339Z,8.05
2022-10-31T22:49:16.696Z,9.20
2022-10-31T22:51:44.726Z,11.68
2022-10-31T22:54:15.343Z,11.07
2022-10-31T22:56:42.911Z,10.60
2022-10-31T22:59:13.649Z,12.10
2022-10-31T23:01:41.818Z,9.40
2022-10-31T23:06:42.036Z,6.53
2022-10-31T23:09:09.298Z,10.35
2022-10-31T23:11:39.208Z,7.88
2022-10-31T23:14:14.613Z,5.90
2022-10-31T23:16:51.351Z,5.30
2022-10-31T23:19:23.398Z,3.47
2022-10-31T23:21:57.130Z,4.32
2022-10-31T23:24:24.862Z,3.03
2022-10-31T23:27:05.350Z,4.97
2022-10-31T23:29:33.950Z,8.13
2022-10-31T23:32:02.116Z,9.43
2022-10-31T23:34:29.439Z,5.63
2022-10-31T23:36:56.996Z,8.40
2022-10-31T23:39:25.238Z,10.18
2022-10-31T23:41:52.654Z,8.98
2022-10-31T23:44:19.856Z,7.40
2022-10-31T23:46:47.125Z,13.05
2022-10-31T23:49:14.425Z,10.40
2022-10-31T23:51:41.641Z,6.25
2022-10-31T23:54:09.488Z,11.88
2022-10-31T23:56:36.772Z,10.48
2022-10-31T23:59:04.318Z,15.27
